Burnt Store Marina, FL

10:38 AM EST on December 10, 2016 (GMT -0500)
| | Change Station

Elev -9999 ft 0.00 °N, 0.00 °E | Updated 4 minutes ago

Partly Cloudy
Partly Cloudy
76 °F
Feels Like 76 °F
N
10
Wind Variable Wind from ENE
Gusts 16 mph

Today
High -- | Low -- °F
--% Chance of Precip.
Yesterday
High -- | Low -- °F
Precip. -- in
Pressure 30.34 in
Visibility 10.0 miles
Clouds Few 4500 ft
Dew Point 63 °F
Humidity 64%
Rainfall --
Snow Depth Not available.
7:06 AM 5:36 PM
Waxing Gibbous, 84% visible
METAR KPGD 101453Z 05009KT 10SM FEW045 16/11 A3034 RMK AO2 SLP273 T01610106 51009
Pressure 30.34 in
Visibility 10.0 miles
Clouds Few 4500 ft
Dew Point 63 °F
Humidity 64%
Rainfall --
Snow Depth Not available.
7:06 AM 5:36 PM
Waxing Gibbous, 84% visible
METAR KPGD 101453Z 05009KT 10SM FEW045 16/11 A3034 RMK AO2 SLP273 T01610106 51009

10-Day Weather Forecast

Almanac

Astronomy

Dec. 10, 2016 Rise Set
Actual Time
Civil Twilight
Nautical Twilight
Astronomical Twilight
Moon
Length of Visible Light
Length of Day
Tomorrow will be .
, % of the Moon is Illuminated

Today's Extremes

State Highs State Lows

Community

WunderPhotos

Upload Photos

1,956,549 photos uploaded!

WunderBlog® & News

Nearby

Air Quality

  Air Quality AQ Index Pollutant
Not available.

Snow Depth

Station Depth Elevation

Earthquake Activity

City Distance Mag. Time & Date
Minimum magnitude displayed is 2.5.

Coastal Water Temperatures

Place Temperature

Stations

Nearby Weather Stations

Station Location Temp. Windchill Dew Point Humidity Wind Precip. Elev Updated Type
                   

Watches & Warnings

There are currently no watches in effect.